sensor_id;sensor_type;location;lat;lon;timestamp;pressure;altitude;pressure_sealevel;temperature;humidity
61710;BME280;47633;51.494;5.386;2023-08-31T00:02:00;100780.06;;;21.66;49.68
61710;BME280;47633;51.494;5.386;2023-08-31T00:04:26;100786.22;;;21.67;49.99
61710;BME280;47633;51.494;5.386;2023-08-31T00:06:51;100784.56;;;21.66;49.86
61710;BME280;47633;51.494;5.386;2023-08-31T00:09:17;100788.03;;;21.66;49.61
61710;BME280;47633;51.494;5.386;2023-08-31T00:11:44;100782.06;;;21.64;49.76
61710;BME280;47633;51.494;5.386;2023-08-31T00:14:09;100787.34;;;21.64;49.93
61710;BME280;47633;51.494;5.386;2023-08-31T00:16:34;100783.03;;;21.63;49.49
61710;BME280;47633;51.494;5.386;2023-08-31T00:19:01;100777.72;;;21.63;49.51
61710;BME280;47633;51.494;5.386;2023-08-31T00:21:27;100784.03;;;21.62;49.63
61710;BME280;47633;51.494;5.386;2023-08-31T00:23:53;100778.16;;;21.59;49.81
61710;BME280;47633;51.494;5.386;2023-08-31T00:26:19;100780.53;;;21.62;49.55
61710;BME280;47633;51.494;5.386;2023-08-31T00:28:45;100777.03;;;21.61;49.63
61710;BME280;47633;51.494;5.386;2023-08-31T00:31:10;100776.22;;;21.61;49.52
61710;BME280;47633;51.494;5.386;2023-08-31T00:33:37;100782.34;;;21.61;49.38
61710;BME280;47633;51.494;5.386;2023-08-31T00:36:03;100781.53;;;21.61;49.70
61710;BME280;47633;51.494;5.386;2023-08-31T00:38:30;100785.00;;;21.61;49.38
61710;BME280;47633;51.494;5.386;2023-08-31T00:40:55;100780.81;;;21.59;49.58
61710;BME280;47633;51.494;5.386;2023-08-31T00:43:21;100774.69;;;21.58;49.78
61710;BME280;47633;51.494;5.386;2023-08-31T00:45:49;100779.16;;;21.58;49.45
61710;BME280;47633;51.494;5.386;2023-08-31T00:48:15;100782.63;;;21.58;49.57
61710;BME280;47633;51.494;5.386;2023-08-31T00:50:46;100778.50;;;21.55;49.40
61710;BME280;47633;51.494;5.386;2023-08-31T00:53:12;100769.53;;;21.56;49.53
61710;BME280;47633;51.494;5.386;2023-08-31T00:55:37;100780.13;;;21.56;49.41
61710;BME280;47633;51.494;5.386;2023-08-31T00:58:05;100780.13;;;21.56;49.29
61710;BME280;47633;51.494;5.386;2023-08-31T01:03:35;100774.44;;;21.51;49.42
61710;BME280;47633;51.494;5.386;2023-08-31T01:06:12;100773.34;;;21.54;49.24
61710;BME280;47633;51.494;5.386;2023-08-31T01:14:02;100776.13;;;21.52;49.43
61710;BME280;47633;51.494;5.386;2023-08-31T01:16:35;100769.00;;;21.53;49.33
61710;BME280;47633;51.494;5.386;2023-08-31T01:19:06;100768.47;;;21.49;49.32
61710;BME280;47633;51.494;5.386;2023-08-31T01:21:39;100769.16;;;21.51;49.18
61710;BME280;47633;51.494;5.386;2023-08-31T01:24:07;100764.69;;;21.52;48.96
61710;BME280;47633;51.494;5.386;2023-08-31T01:26:34;100758.53;;;21.51;49.16
61710;BME280;47633;51.494;5.386;2023-08-31T01:29:00;100767.47;;;21.50;48.88
61710;BME280;47633;51.494;5.386;2023-08-31T01:31:25;100772.91;;;21.49;49.20
61710;BME280;47633;51.494;5.386;2023-08-31T01:33:50;100772.09;;;21.48;49.16
61710;BME280;47633;51.494;5.386;2023-08-31T01:36:28;100773.03;;;21.47;49.14
61710;BME280;47633;51.494;5.386;2023-08-31T01:39:06;100781.13;;;21.46;49.09
61710;BME280;47633;51.494;5.386;2023-08-31T01:41:37;100785.34;;;21.48;49.03
61710;BME280;47633;51.494;5.386;2023-08-31T01:44:05;100782.00;;;21.46;49.11
61710;BME280;47633;51.494;5.386;2023-08-31T01:46:33;100782.97;;;21.45;49.05
61710;BME280;47633;51.494;5.386;2023-08-31T01:48:59;100787.44;;;21.45;49.07
61710;BME280;47633;51.494;5.386;2023-08-31T01:51:25;100788.25;;;21.45;49.08
61710;BME280;47633;51.494;5.386;2023-08-31T01:53:50;100788.25;;;21.45;48.99
61710;BME280;47633;51.494;5.386;2023-08-31T01:56:15;100782.13;;;21.45;48.86
61710;BME280;47633;51.494;5.386;2023-08-31T01:58:41;100783.13;;;21.44;49.35
61710;BME280;47633;51.494;5.386;2023-08-31T02:01:06;100787.44;;;21.45;48.95
61710;BME280;47633;51.494;5.386;2023-08-31T02:03:31;100786.59;;;21.44;48.86
61710;BME280;47633;51.494;5.386;2023-08-31T02:05:56;100780.47;;;21.44;48.89
61710;BME280;47633;51.494;5.386;2023-08-31T02:08:22;100787.59;;;21.43;49.15
61710;BME280;47633;51.494;5.386;2023-08-31T02:10:48;100786.06;;;21.41;49.30
61710;BME280;47633;51.494;5.386;2023-08-31T02:13:14;100796.50;;;21.42;48.93
61710;BME280;47633;51.494;5.386;2023-08-31T02:15:41;100793.88;;;21.42;49.22
61710;BME280;47633;51.494;5.386;2023-08-31T02:18:08;100792.19;;;21.41;49.03
61710;BME280;47633;51.494;5.386;2023-08-31T02:20:33;100801.00;;;21.42;48.90
61710;BME280;47633;51.494;5.386;2023-08-31T02:22:59;100793.03;;;21.42;49.11
61710;BME280;47633;51.494;5.386;2023-08-31T02:25:25;100795.69;;;21.42;48.98
61710;BME280;47633;51.494;5.386;2023-08-31T02:27:54;100796.81;;;21.39;48.80
61710;BME280;47633;51.494;5.386;2023-08-31T02:30:19;100794.16;;;21.39;49.33
61710;BME280;47633;51.494;5.386;2023-08-31T02:32:44;100787.06;;;21.40;49.15
61710;BME280;47633;51.494;5.386;2023-08-31T02:35:10;100780.75;;;21.41;48.84
61710;BME280;47633;51.494;5.386;2023-08-31T02:37:37;100785.22;;;21.40;49.21
61710;BME280;47633;51.494;5.386;2023-08-31T02:40:03;100791.50;;;21.39;49.36
61710;BME280;47633;51.494;5.386;2023-08-31T02:42:29;100788.03;;;21.38;49.12
61710;BME280;47633;51.494;5.386;2023-08-31T02:44:54;100790.81;;;21.37;48.99
61710;BME280;47633;51.494;5.386;2023-08-31T02:47:19;100789.84;;;21.38;49.25
61710;BME280;47633;51.494;5.386;2023-08-31T02:49:45;100787.22;;;21.38;49.26
61710;BME280;47633;51.494;5.386;2023-08-31T02:52:10;100789.00;;;21.37;48.97
61710;BME280;47633;51.494;5.386;2023-08-31T02:54:38;100784.69;;;21.36;49.07
61710;BME280;47633;51.494;5.386;2023-08-31T02:57:04;100789.00;;;21.37;49.10
61710;BME280;47633;51.494;5.386;2023-08-31T02:59:29;100788.19;;;21.37;49.00
61710;BME280;47633;51.494;5.386;2023-08-31T03:01:54;100790.81;;;21.37;48.98
61710;BME280;47633;51.494;5.386;2023-08-31T03:04:20;100786.63;;;21.34;49.02
61710;BME280;47633;51.494;5.386;2023-08-31T03:06:45;100792.66;;;21.36;48.84
61710;BME280;47633;51.494;5.386;2023-08-31T03:09:10;100793.47;;;21.37;48.98
61710;BME280;47633;51.494;5.386;2023-08-31T03:11:36;100792.81;;;21.35;49.02
61710;BME280;47633;51.494;5.386;2023-08-31T03:14:01;100789.28;;;21.34;48.72
61710;BME280;47633;51.494;5.386;2023-08-31T03:16:26;100777.88;;;21.34;48.97
61710;BME280;47633;51.494;5.386;2023-08-31T03:18:51;100791.13;;;21.34;48.94
61710;BME280;47633;51.494;5.386;2023-08-31T03:21:17;100798.25;;;21.33;48.72
61710;BME280;47633;51.494;5.386;2023-08-31T03:23:42;100798.25;;;21.33;48.77
61710;BME280;47633;51.494;5.386;2023-08-31T03:26:08;100794.75;;;21.33;48.87
61710;BME280;47633;51.494;5.386;2023-08-31T03:28:33;100800.03;;;21.33;48.81
61710;BME280;47633;51.494;5.386;2023-08-31T03:30:59;100799.22;;;21.32;48.86
61710;BME280;47633;51.494;5.386;2023-08-31T03:33:24;100799.22;;;21.32;49.18
61710;BME280;47633;51.494;5.386;2023-08-31T03:35:50;100801.88;;;21.32;48.93
61710;BME280;47633;51.494;5.386;2023-08-31T03:38:15;100796.56;;;21.32;48.68
61710;BME280;47633;51.494;5.386;2023-08-31T03:40:40;100795.88;;;21.30;48.94
61710;BME280;47633;51.494;5.386;2023-08-31T03:43:06;100792.38;;;21.30;48.70
61710;BME280;47633;51.494;5.386;2023-08-31T03:45:31;100787.09;;;21.30;49.01
61710;BME280;47633;51.494;5.386;2023-08-31T03:47:57;100788.91;;;21.29;48.77
61710;BME280;47633;51.494;5.386;2023-08-31T03:50:22;100778.31;;;21.29;48.77
61710;BME280;47633;51.494;5.386;2023-08-31T03:52:47;100779.28;;;21.28;48.96
61710;BME280;47633;51.494;5.386;2023-08-31T03:55:13;100785.44;;;21.29;48.76
61710;BME280;47633;51.494;5.386;2023-08-31T03:57:38;100781.94;;;21.28;48.86
61710;BME280;47633;51.494;5.386;2023-08-31T04:00:03;100780.28;;;21.27;49.17
61710;BME280;47633;51.494;5.386;2023-08-31T04:02:38;100777.06;;;21.24;48.76
61710;BME280;47633;51.494;5.386;2023-08-31T04:05:03;100788.22;;;21.27;48.83
61710;BME280;47633;51.494;5.386;2023-08-31T04:07:34;100795.31;;;21.27;48.59
61710;BME280;47633;51.494;5.386;2023-08-31T04:10:00;100786.56;;;21.26;48.70
61710;BME280;47633;51.494;5.386;2023-08-31T04:12:25;100794.50;;;21.26;48.71
61710;BME280;47633;51.494;5.386;2023-08-31T04:14:50;100793.69;;;21.26;48.50
61710;BME280;47633;51.494;5.386;2023-08-31T04:17:16;100801.63;;;21.26;48.74
61710;BME280;47633;51.494;5.386;2023-08-31T04:19:42;100804.41;;;21.24;48.50
61710;BME280;47633;51.494;5.386;2023-08-31T04:22:07;100806.06;;;21.25;48.67
61710;BME280;47633;51.494;5.386;2023-08-31T04:24:33;100808.88;;;21.24;48.76
61710;BME280;47633;51.494;5.386;2023-08-31T04:26:58;100804.41;;;21.24;48.99
61710;BME280;47633;51.494;5.386;2023-08-31T04:29:24;100808.03;;;21.23;48.82
61710;BME280;47633;51.494;5.386;2023-08-31T04:31:50;100814.16;;;21.24;48.68
61710;BME280;47633;51.494;5.386;2023-08-31T04:34:15;100818.66;;;21.23;48.34
61710;BME280;47633;51.494;5.386;2023-08-31T04:36:41;100809.88;;;21.23;48.85
61710;BME280;47633;51.494;5.386;2023-08-31T04:39:06;100816.81;;;21.24;48.79
61710;BME280;47633;51.494;5.386;2023-08-31T04:41:32;100815.16;;;21.23;48.68
61710;BME280;47633;51.494;5.386;2023-08-31T04:43:58;100823.13;;;21.23;48.82
61710;BME280;47633;51.494;5.386;2023-08-31T04:46:23;100822.28;;;21.22;48.50
61710;BME280;47633;51.494;5.386;2023-08-31T04:48:48;100825.78;;;21.23;48.76
61710;BME280;47633;51.494;5.386;2023-08-31T04:51:33;100828.56;;;21.21;48.81
61710;BME280;47633;51.494;5.386;2023-08-31T04:53:59;100823.25;;;21.21;48.68
61710;BME280;47633;51.494;5.386;2023-08-31T04:56:24;100827.75;;;21.20;48.48
61710;BME280;47633;51.494;5.386;2023-08-31T04:58:50;100831.22;;;21.21;48.30
61710;BME280;47633;51.494;5.386;2023-08-31T05:01:15;100835.69;;;21.20;48.65
61710;BME280;47633;51.494;5.386;2023-08-31T05:03:41;100835.84;;;21.19;48.97
61710;BME280;47633;51.494;5.386;2023-08-31T05:06:06;100841.97;;;21.19;48.78
61710;BME280;47633;51.494;5.386;2023-08-31T05:08:33;100838.47;;;21.19;48.54
61710;BME280;47633;51.494;5.386;2023-08-31T05:10:59;100834.16;;;21.18;48.63
61710;BME280;47633;51.494;5.386;2023-08-31T05:13:24;100844.59;;;21.19;48.54
61710;BME280;47633;51.494;5.386;2023-08-31T05:15:49;100848.22;;;21.18;48.52
61710;BME280;47633;51.494;5.386;2023-08-31T05:18:15;100853.53;;;21.18;48.54
61710;BME280;47633;51.494;5.386;2023-08-31T05:20:44;100853.66;;;21.17;48.59
61710;BME280;47633;51.494;5.386;2023-08-31T05:23:10;100859.69;;;21.19;48.59
61710;BME280;47633;51.494;5.386;2023-08-31T05:25:35;100860.66;;;21.18;48.64
61710;BME280;47633;51.494;5.386;2023-08-31T05:28:00;100864.28;;;21.17;48.67
61710;BME280;47633;51.494;5.386;2023-08-31T05:30:26;100866.91;;;21.17;48.75
61710;BME280;47633;51.494;5.386;2023-08-31T05:32:51;100870.44;;;21.17;48.82
61710;BME280;47633;51.494;5.386;2023-08-31T05:35:17;100874.03;;;21.16;48.66
61710;BME280;47633;51.494;5.386;2023-08-31T05:37:42;100873.22;;;21.16;48.59
61710;BME280;47633;51.494;5.386;2023-08-31T05:40:08;100875.88;;;21.16;48.50
61710;BME280;47633;51.494;5.386;2023-08-31T05:42:36;100876.00;;;21.14;48.87
61710;BME280;47633;51.494;5.386;2023-08-31T05:45:02;100885.63;;;21.15;48.86
61710;BME280;47633;51.494;5.386;2023-08-31T05:47:27;100891.78;;;21.16;48.74
61710;BME280;47633;51.494;5.386;2023-08-31T05:49:53;100888.41;;;21.14;48.78
61710;BME280;47633;51.494;5.386;2023-08-31T05:52:18;100884.78;;;21.15;48.87
61710;BME280;47633;51.494;5.386;2023-08-31T05:54:43;100884.78;;;21.15;48.75
61710;BME280;47633;51.494;5.386;2023-08-31T05:57:08;100880.47;;;21.14;48.50
61710;BME280;47633;51.494;5.386;2023-08-31T05:59:34;100884.94;;;21.13;48.94
61710;BME280;47633;51.494;5.386;2023-08-31T06:01:59;100893.72;;;21.14;48.86
61710;BME280;47633;51.494;5.386;2023-08-31T06:04:24;100888.56;;;21.12;48.94
61710;BME280;47633;51.494;5.386;2023-08-31T06:06:49;100890.09;;;21.15;48.83
61710;BME280;47633;51.494;5.386;2023-08-31T06:09:19;100891.06;;;21.14;48.59
61710;BME280;47633;51.494;5.386;2023-08-31T06:11:45;100892.88;;;21.13;49.09
61710;BME280;47633;51.494;5.386;2023-08-31T06:14:10;100888.56;;;21.12;48.89
61710;BME280;47633;51.494;5.386;2023-08-31T06:16:38;100894.72;;;21.13;49.13
61710;BME280;47633;51.494;5.386;2023-08-31T06:19:04;100892.88;;;21.13;48.98
61710;BME280;47633;51.494;5.386;2023-08-31T06:21:29;100900.84;;;21.13;48.91
61710;BME280;47633;51.494;5.386;2023-08-31T06:23:54;100901.78;;;21.12;48.82
61710;BME280;47633;51.494;5.386;2023-08-31T06:26:20;100903.63;;;21.12;49.36
61710;BME280;47633;51.494;5.386;2023-08-31T06:28:45;100906.28;;;21.12;49.23
61710;BME280;47633;51.494;5.386;2023-08-31T06:31:10;100908.91;;;21.12;49.25
61710;BME280;47633;51.494;5.386;2023-08-31T06:33:35;100916.88;;;21.12;49.27
61710;BME280;47633;51.494;5.386;2023-08-31T06:36:01;100911.56;;;21.12;49.01
61710;BME280;47633;51.494;5.386;2023-08-31T06:38:26;100918.56;;;21.13;49.23
61710;BME280;47633;51.494;5.386;2023-08-31T06:40:51;100914.47;;;21.18;49.64
61710;BME280;47633;51.494;5.386;2023-08-31T06:43:25;100913.22;;;21.23;49.53
61710;BME280;47633;51.494;5.386;2023-08-31T06:45:52;100917.53;;;21.24;49.43
61710;BME280;47633;51.494;5.386;2023-08-31T06:48:17;100920.91;;;21.26;49.32
61710;BME280;47633;51.494;5.386;2023-08-31T06:50:43;100929.00;;;21.24;49.75
61710;BME280;47633;51.494;5.386;2023-08-31T06:53:08;100930.94;;;21.22;49.90
61710;BME280;47633;51.494;5.386;2023-08-31T06:55:33;100930.78;;;21.24;49.92
61710;BME280;47633;51.494;5.386;2023-08-31T06:57:59;100928.84;;;21.26;50.34
61710;BME280;47633;51.494;5.386;2023-08-31T07:00:25;100928.84;;;21.26;50.07
61710;BME280;47633;51.494;5.386;2023-08-31T07:02:50;100938.19;;;21.20;50.56
61710;BME280;47633;51.494;5.386;2023-08-31T07:05:16;100932.50;;;21.15;50.38
61710;BME280;47633;51.494;5.386;2023-08-31T07:07:41;100938.91;;;21.12;51.03
61710;BME280;47633;51.494;5.386;2023-08-31T07:10:07;100939.75;;;21.13;50.85
61710;BME280;47633;51.494;5.386;2023-08-31T07:12:32;100940.31;;;21.16;50.78
61710;BME280;47633;51.494;5.386;2023-08-31T07:14:58;100940.41;;;21.25;50.41
61710;BME280;47633;51.494;5.386;2023-08-31T07:17:23;100944.19;;;21.32;50.38
61710;BME280;47633;51.494;5.386;2023-08-31T07:19:48;100941.94;;;21.37;50.45
61710;BME280;47633;51.494;5.386;2023-08-31T07:22:14;100945.41;;;21.37;50.62
61710;BME280;47633;51.494;5.386;2023-08-31T07:24:39;100944.44;;;21.38;50.46
61710;BME280;47633;51.494;5.386;2023-08-31T07:27:05;100953.22;;;21.39;50.43
61710;BME280;47633;51.494;5.386;2023-08-31T07:29:30;100958.38;;;21.41;50.89
61710;BME280;47633;51.494;5.386;2023-08-31T07:31:57;100949.44;;;21.42;50.95
61710;BME280;47633;51.494;5.386;2023-08-31T07:34:23;100950.13;;;21.44;50.91
61710;BME280;47633;51.494;5.386;2023-08-31T07:36:48;100944.69;;;21.45;50.80
61710;BME280;47633;51.494;5.386;2023-08-31T07:39:14;100952.50;;;21.47;51.05
61710;BME280;47633;51.494;5.386;2023-08-31T07:41:41;100949.84;;;21.47;50.61
61710;BME280;47633;51.494;5.386;2023-08-31T07:44:06;100955.97;;;21.47;50.92
61710;BME280;47633;51.494;5.386;2023-08-31T07:46:31;100951.69;;;21.46;50.95
61710;BME280;47633;51.494;5.386;2023-08-31T07:48:57;100955.97;;;21.47;51.25
61710;BME280;47633;51.494;5.386;2023-08-31T07:51:22;100956.72;;;21.49;51.50
61710;BME280;47633;51.494;5.386;2023-08-31T07:53:51;100954.19;;;21.48;51.56
61710;BME280;47633;51.494;5.386;2023-08-31T07:56:16;100956.59;;;21.51;51.77
61710;BME280;47633;51.494;5.386;2023-08-31T07:58:41;100954.59;;;21.53;51.44
61710;BME280;47633;51.494;5.386;2023-08-31T08:01:07;100957.13;;;21.54;51.35
61710;BME280;47633;51.494;5.386;2023-08-31T08:03:32;100964.25;;;21.54;51.70
61710;BME280;47633;51.494;5.386;2023-08-31T08:05:58;100958.09;;;21.53;51.83
61710;BME280;47633;51.494;5.386;2023-08-31T08:08:23;100966.03;;;21.53;52.09
61710;BME280;47633;51.494;5.386;2023-08-31T08:10:52;100966.34;;;21.50;51.81
61710;BME280;47633;51.494;5.386;2023-08-31T08:13:18;100966.91;;;21.54;52.11
61710;BME280;47633;51.494;5.386;2023-08-31T08:15:45;100967.72;;;21.54;51.89
61710;BME280;47633;51.494;5.386;2023-08-31T08:18:10;100967.72;;;21.54;51.91
61710;BME280;47633;51.494;5.386;2023-08-31T08:20:36;100969.84;;;21.51;52.25
61710;BME280;47633;51.494;5.386;2023-08-31T08:23:01;100977.66;;;21.52;52.19
61710;BME280;47633;51.494;5.386;2023-08-31T08:25:26;100983.09;;;21.51;52.44
61710;BME280;47633;51.494;5.386;2023-08-31T08:27:52;100979.31;;;21.53;52.08
61710;BME280;47633;51.494;5.386;2023-08-31T08:30:17;100979.16;;;21.55;52.21
61710;BME280;47633;51.494;5.386;2023-08-31T08:32:44;100975.81;;;21.53;52.17
61710;BME280;47633;51.494;5.386;2023-08-31T08:35:09;100977.66;;;21.52;52.52
61710;BME280;47633;51.494;5.386;2023-08-31T08:37:34;100973.31;;;21.51;52.29
61710;BME280;47633;51.494;5.386;2023-08-31T08:40:00;100982.81;;;21.54;52.45
61710;BME280;47633;51.494;5.386;2023-08-31T08:42:26;100984.31;;;21.56;52.44
61710;BME280;47633;51.494;5.386;2023-08-31T08:44:52;100988.94;;;21.54;52.24
61710;BME280;47633;51.494;5.386;2023-08-31T08:47:17;100980.84;;;21.56;52.55
61710;BME280;47633;51.494;5.386;2023-08-31T08:49:43;100989.47;;;21.58;52.26
61710;BME280;47633;51.494;5.386;2023-08-31T08:52:09;100989.47;;;21.58;52.53
61710;BME280;47633;51.494;5.386;2023-08-31T08:54:35;100998.13;;;21.60;52.13
61710;BME280;47633;51.494;5.386;2023-08-31T08:57:00;100999.66;;;21.63;52.44
61710;BME280;47633;51.494;5.386;2023-08-31T08:59:26;101003.00;;;21.65;52.44
61710;BME280;47633;51.494;5.386;2023-08-31T09:01:55;101010.41;;;21.61;52.45
61710;BME280;47633;51.494;5.386;2023-08-31T09:04:20;101005.09;;;21.61;52.14
61710;BME280;47633;51.494;5.386;2023-08-31T09:06:45;100999.81;;;21.61;52.54
61710;BME280;47633;51.494;5.386;2023-08-31T09:09:11;101007.63;;;21.63;52.33
61710;BME280;47633;51.494;5.386;2023-08-31T09:11:36;101007.47;;;21.64;52.57
61710;BME280;47633;51.494;5.386;2023-08-31T09:14:17;101008.44;;;21.63;52.69
61710;BME280;47633;51.494;5.386;2023-08-31T09:16:47;101002.84;;;21.66;52.36
61710;BME280;47633;51.494;5.386;2023-08-31T09:19:38;101005.50;;;21.66;52.50
61710;BME280;47633;51.494;5.386;2023-08-31T09:22:04;101007.19;;;21.67;52.43
61710;BME280;47633;51.494;5.386;2023-08-31T09:24:40;101003.84;;;21.65;52.77
61710;BME280;47633;51.494;5.386;2023-08-31T09:27:05;101009.69;;;21.69;52.23
61710;BME280;47633;51.494;5.386;2023-08-31T09:29:31;101002.72;;;21.68;52.28
61710;BME280;47633;51.494;5.386;2023-08-31T09:31:56;101004.38;;;21.69;52.21
61710;BME280;47633;51.494;5.386;2023-08-31T09:34:32;101010.13;;;21.64;52.55
61710;BME280;47633;51.494;5.386;2023-08-31T09:40:02;101017.50;;;21.70;52.46
61710;BME280;47633;51.494;5.386;2023-08-31T09:42:37;101006.38;;;21.67;52.49
61710;BME280;47633;51.494;5.386;2023-08-31T09:45:04;101006.06;;;21.70;52.67
61710;BME280;47633;51.494;5.386;2023-08-31T09:47:29;101013.03;;;21.71;52.74
61710;BME280;47633;51.494;5.386;2023-08-31T09:49:56;101006.91;;;21.70;52.67
61710;BME280;47633;51.494;5.386;2023-08-31T09:52:22;101006.75;;;21.72;52.78
61710;BME280;47633;51.494;5.386;2023-08-31T09:54:50;101007.59;;;21.72;52.31
61710;BME280;47633;51.494;5.386;2023-08-31T09:57:17;101010.25;;;21.72;52.81
61710;BME280;47633;51.494;5.386;2023-08-31T09:59:43;101018.34;;;21.71;52.37
61710;BME280;47633;51.494;5.386;2023-08-31T10:02:10;101017.38;;;21.72;52.45
61710;BME280;47633;51.494;5.386;2023-08-31T10:04:38;101009.41;;;21.72;52.48
61710;BME280;47633;51.494;5.386;2023-08-31T10:07:04;101019.88;;;21.73;52.59
61710;BME280;47633;51.494;5.386;2023-08-31T10:09:31;101013.56;;;21.74;52.80
61710;BME280;47633;51.494;5.386;2023-08-31T10:11:57;101013.44;;;21.76;52.47
61710;BME280;47633;51.494;5.386;2023-08-31T10:14:25;101020.41;;;21.77;52.61
61710;BME280;47633;51.494;5.386;2023-08-31T10:16:54;101014.13;;;21.78;52.30
61710;BME280;47633;51.494;5.386;2023-08-31T10:19:21;101020.94;;;21.81;52.45
61710;BME280;47633;51.494;5.386;2023-08-31T10:21:46;101012.47;;;21.77;52.78
61710;BME280;47633;51.494;5.386;2023-08-31T10:24:11;101015.69;;;21.71;52.75
61710;BME280;47633;51.494;5.386;2023-08-31T10:26:37;101005.66;;;21.65;52.90
61710;BME280;47633;51.494;5.386;2023-08-31T10:29:02;101017.69;;;21.59;53.22
61710;BME280;47633;51.494;5.386;2023-08-31T10:31:31;101006.22;;;21.59;53.06
61710;BME280;47633;51.494;5.386;2023-08-31T10:34:05;101006.78;;;21.62;53.04
61710;BME280;47633;51.494;5.386;2023-08-31T10:36:45;101004.13;;;21.62;53.05
61710;BME280;47633;51.494;5.386;2023-08-31T10:39:14;101012.91;;;21.63;53.05
61710;BME280;47633;51.494;5.386;2023-08-31T10:41:41;101005.66;;;21.65;53.03
61710;BME280;47633;51.494;5.386;2023-08-31T10:44:20;101001.06;;;21.67;53.03
61710;BME280;47633;51.494;5.386;2023-08-31T10:46:48;100994.75;;;21.68;52.67
61710;BME280;47633;51.494;5.386;2023-08-31T10:49:15;100994.06;;;21.66;52.77
61710;BME280;47633;51.494;5.386;2023-08-31T10:54:46;100983.06;;;21.61;53.10
61710;BME280;47633;51.494;5.386;2023-08-31T10:57:11;100981.25;;;21.61;53.11
61710;BME280;47633;51.494;5.386;2023-08-31T10:59:49;100980.69;;;21.58;53.45
61710;BME280;47633;51.494;5.386;2023-08-31T11:02:30;100984.31;;;21.56;53.41
61710;BME280;47633;51.494;5.386;2023-08-31T11:05:15;100973.72;;;21.56;53.54
61710;BME280;47633;51.494;5.386;2023-08-31T11:07:48;100982.66;;;21.55;53.24
61710;BME280;47633;51.494;5.386;2023-08-31T11:10:22;100983.63;;;21.54;53.46
61710;BME280;47633;51.494;5.386;2023-08-31T11:12:50;100987.84;;;21.57;53.08
61710;BME280;47633;51.494;5.386;2023-08-31T11:15:19;100986.00;;;21.58;53.14
61710;BME280;47633;51.494;5.386;2023-08-31T11:17:45;100985.84;;;21.59;53.29
61710;BME280;47633;51.494;5.386;2023-08-31T11:20:16;100987.84;;;21.57;53.33
61710;BME280;47633;51.494;5.386;2023-08-31T11:22:43;100986.84;;;21.58;53.41
61710;BME280;47633;51.494;5.386;2023-08-31T11:25:11;100987.66;;;21.59;53.44
61710;BME280;47633;51.494;5.386;2023-08-31T11:27:37;100990.16;;;21.60;53.14
61710;BME280;47633;51.494;5.386;2023-08-31T11:30:10;100984.03;;;21.60;53.21
61710;BME280;47633;51.494;5.386;2023-08-31T11:32:36;100980.56;;;21.59;53.40
61710;BME280;47633;51.494;5.386;2023-08-31T11:35:01;100984.19;;;21.58;53.62
61710;BME280;47633;51.494;5.386;2023-08-31T11:37:29;100982.34;;;21.59;53.22
61710;BME280;47633;51.494;5.386;2023-08-31T11:39:54;100976.22;;;21.58;53.20
61710;BME280;47633;51.494;5.386;2023-08-31T11:42:21;100969.09;;;21.59;53.35
61710;BME280;47633;51.494;5.386;2023-08-31T11:44:47;100966.44;;;21.59;53.22
61710;BME280;47633;51.494;5.386;2023-08-31T11:47:14;100967.44;;;21.58;53.72
61710;BME280;47633;51.494;5.386;2023-08-31T11:49:41;100973.56;;;21.58;53.48
61710;BME280;47633;51.494;5.386;2023-08-31T11:52:10;100972.75;;;21.58;53.57
61710;BME280;47633;51.494;5.386;2023-08-31T11:54:39;100970.91;;;21.58;53.72
61710;BME280;47633;51.494;5.386;2023-08-31T11:57:08;100960.44;;;21.56;53.44
61710;BME280;47633;51.494;5.386;2023-08-31T11:59:35;100974.56;;;21.57;53.52
61710;BME280;47633;51.494;5.386;2023-08-31T12:02:01;100978.19;;;21.56;53.83
61710;BME280;47633;51.494;5.386;2023-08-31T12:04:28;100974.72;;;21.55;53.72
61710;BME280;47633;51.494;5.386;2023-08-31T12:07:01;100981.81;;;21.55;53.93
61710;BME280;47633;51.494;5.386;2023-08-31T12:09:30;100980.16;;;21.54;53.72
61710;BME280;47633;51.494;5.386;2023-08-31T12:11:55;100982.53;;;21.57;53.36
61710;BME280;47633;51.494;5.386;2023-08-31T12:14:22;100986.84;;;21.58;53.34
61710;BME280;47633;51.494;5.386;2023-08-31T12:16:48;100983.22;;;21.59;53.20
61710;BME280;47633;51.494;5.386;2023-08-31T12:19:14;100992.81;;;21.60;53.17
61710;BME280;47633;51.494;5.386;2023-08-31T12:21:43;101006.78;;;21.62;53.16
61710;BME280;47633;51.494;5.386;2023-08-31T12:24:09;101012.50;;;21.67;53.18
61710;BME280;47633;51.494;5.386;2023-08-31T12:26:34;101013.19;;;21.69;53.23
61710;BME280;47633;51.494;5.386;2023-08-31T12:29:00;101019.19;;;21.71;53.54
61710;BME280;47633;51.494;5.386;2023-08-31T12:31:25;101036.47;;;21.76;53.58
61710;BME280;47633;51.494;5.386;2023-08-31T12:33:51;101048.78;;;21.77;53.23
61710;BME280;47633;51.494;5.386;2023-08-31T12:36:16;101038.69;;;21.80;53.42
61710;BME280;47633;51.494;5.386;2023-08-31T12:38:42;101036.03;;;21.80;54.20
61710;BME280;47633;51.494;5.386;2023-08-31T12:41:07;101027.94;;;21.82;54.26
61710;BME280;47633;51.494;5.386;2023-08-31T12:43:34;101028.91;;;21.81;54.35
61710;BME280;47633;51.494;5.386;2023-08-31T12:45:59;101022.63;;;21.82;54.19
61710;BME280;47633;51.494;5.386;2023-08-31T12:48:25;101026.97;;;21.83;54.50
61710;BME280;47633;51.494;5.386;2023-08-31T12:50:51;101028.63;;;21.84;54.60
61710;BME280;47633;51.494;5.386;2023-08-31T12:53:18;101031.28;;;21.84;54.98
61710;BME280;47633;51.494;5.386;2023-08-31T12:55:43;101030.31;;;21.85;54.68
61710;BME280;47633;51.494;5.386;2023-08-31T12:58:09;101038.28;;;21.85;55.01
61710;BME280;47633;51.494;5.386;2023-08-31T13:00:34;101026.84;;;21.84;55.27
61710;BME280;47633;51.494;5.386;2023-08-31T13:02:59;101040.91;;;21.85;54.96